Terminal Aerodrome Forecast
Issued by NWS Nashville, TN

Current Version | Previous Version | Text Only | Print | Product List | Glossary On
Versions: 1 2 3 4 5 6 7 8 9 10 11 12 13 14 15 16 17 18 19 20 21 22 23 24 25 26 27 28 29 30 31 32
000
FTUS44 KOHX 250700 AAA
TAFCSV
TAF AMD
KCSV 250718Z 2507/2606 00000KT 1/2SM FG VV002
     FM251130 00000KT 3/4SM BR VV002
      TEMPO 2512/2513 2SM BR BKN004
     FM251330 04005KT 4SM BR SCT005
     FM251430 VRB04KT P6SM SCT250=

USA.gov is the U.S. government's official web portal to all federal, state and local government web resources and services.